Time;durP1;ratioP1;P1;durP2;ratioP2;P2;SDS_P1;SDS_P2;PMS_P1;PMS_P2;Temp;Humidity;BMP_temperature;BMP_pressure;BME280_temperature;BME280_humidity;BME280_pressure;Samples;Min_cycle;Max_cycle;Signal;HPM_P1;HPM_P2
2022/01/28 00:00:18;;;;;;;11.25;2.15;;;13.60;63.60;;;;;;6157647;23;20025;-72
2022/01/28 00:05:21;;;;;;;9.93;2.33;;;13.60;64.00;;;;;;6157551;23;20030;-73
2022/01/28 00:07:48;;;;;;;10.57;2.33;;;13.60;63.90;;;;;;6157891;23;20079;-72
2022/01/28 00:10:14;;;;;;;12.57;2.63;;;13.60;64.20;;;;;;6157453;23;20124;-72
2022/01/28 00:15:44;;;;;;;10.35;2.10;;;13.60;63.70;;;;;;6159078;23;20447;-73
2022/01/28 00:39:47;;;;;;;13.02;2.60;;;13.40;63.30;;;;;;6159214;23;20022;-74
2022/01/28 00:42:13;;;;;;;8.48;2.35;;;13.30;63.40;;;;;;6158172;23;20065;-73
2022/01/28 00:44:39;;;;;;;10.40;2.60;;;13.30;63.50;;;;;;6159294;23;20017;-74
2022/01/28 00:47:05;;;;;;;8.60;2.05;;;13.30;63.30;;;;;;6159942;23;20025;-72
2022/01/28 00:49:31;;;;;;;7.07;2.50;;;13.30;63.40;;;;;;6158841;23;20088;-73
2022/01/28 00:51:56;;;;;;;8.52;1.52;;;13.30;63.30;;;;;;6159457;23;20014;-74
2022/01/28 00:54:22;;;;;;;9.48;2.25;;;13.30;63.20;;;;;;6159075;23;20017;-74
2022/01/28 00:56:49;;;;;;;10.40;2.00;;;13.30;63.60;;;;;;6159470;23;20092;-72
2022/01/28 00:59:15;;;;;;;11.45;2.38;;;13.30;63.20;;;;;;6159088;23;20036;-74
2022/01/28 01:01:41;;;;;;;12.18;2.83;;;13.30;63.30;;;;;;6158526;23;20032;-73
2022/01/28 01:04:07;;;;;;;11.52;2.53;;;13.20;63.00;;;;;;6159057;23;20021;-72
2022/01/28 01:06:34;;;;;;;9.05;2.13;;;13.20;62.90;;;;;;6158477;23;20039;-73
2022/01/28 01:09:00;;;;;;;7.65;1.65;;;13.20;63.10;;;;;;6159009;23;20092;-74
2022/01/28 01:11:27;;;;;;;10.23;2.15;;;13.20;63.10;;;;;;6158702;23;20032;-72
2022/01/28 01:13:54;;;;;;;9.75;2.35;;;13.20;63.00;;;;;;6158689;23;20017;-72
2022/01/28 01:16:29;;;;;;;12.32;2.30;;;13.20;63.20;;;;;;6157508;23;20021;-74
2022/01/28 01:21:39;;;;;;;7.70;2.20;;;13.20;63.30;;;;;;6158664;23;20029;-74
2022/01/28 01:24:07;;;;;;;11.63;1.95;;;13.20;63.30;;;;;;6158454;23;20051;-73
2022/01/28 01:26:36;;;;;;;10.00;2.35;;;13.10;63.10;;;;;;6158749;23;20336;-73
2022/01/28 01:29:10;;;;;;;10.55;2.45;;;13.10;63.20;;;;;;6158876;23;20017;-73
2022/01/28 01:31:39;;;;;;;8.13;2.13;;;13.10;63.40;;;;;;6157286;23;20026;-73
2022/01/28 01:34:17;;;;;;;7.57;1.95;;;13.10;63.10;;;;;;6158638;23;20323;-73
2022/01/28 01:36:44;;;;;;;8.88;2.10;;;13.10;63.30;;;;;;6158741;23;20036;-72
2022/01/28 01:39:14;;;;;;;7.45;2.03;;;13.10;63.10;;;;;;6158630;23;20036;-73
2022/01/28 01:41:50;;;;;;;7.65;1.90;;;13.10;63.40;;;;;;6157093;23;20021;-74
2022/01/28 01:44:36;;;;;;;14.70;2.20;;;13.00;63.30;;;;;;6158652;23;20056;-74
2022/01/28 01:52:24;;;;;;;;;;;13.00;63.30;;;;;;6159323;23;20021;-72
2022/01/28 01:54:50;;;;;;;14.60;2.75;;;13.00;62.60;;;;;;6158661;23;20306;-74
2022/01/28 01:57:16;;;;;;;10.77;2.33;;;13.10;63.20;;;;;;6158338;23;20415;-74
2022/01/28 01:59:43;;;;;;;8.18;2.13;;;13.00;62.90;;;;;;6157578;23;20021;-74
2022/01/28 02:02:11;;;;;;;10.63;2.55;;;13.00;63.20;;;;;;6157948;23;20025;-73
2022/01/28 02:04:37;;;;;;;10.45;2.78;;;13.00;63.20;;;;;;6156727;23;20022;-73
2022/01/28 02:07:04;;;;;;;11.57;2.25;;;13.00;62.70;;;;;;6158625;23;20017;-73
2022/01/28 02:09:30;;;;;;;10.13;2.30;;;12.90;62.70;;;;;;6159120;23;20273;-73
2022/01/28 02:11:56;;;;;;;9.75;2.67;;;12.90;62.90;;;;;;6158173;23;20033;-72
2022/01/28 02:14:22;;;;;;;11.10;2.95;;;12.90;62.80;;;;;;6156810;23;20018;-73
2022/01/28 02:16:48;;;;;;;9.68;2.38;;;12.90;63.00;;;;;;6158286;23;20033;-74
2022/01/28 02:19:14;;;;;;;10.00;2.05;;;12.90;63.00;;;;;;6158035;23;20018;-72
2022/01/28 02:21:47;;;;;;;11.60;2.47;;;12.90;62.80;;;;;;6158893;23;20084;-72
2022/01/28 02:24:16;;;;;;;13.98;2.95;;;13.00;63.30;;;;;;6157537;23;20289;-72
2022/01/28 02:26:42;;;;;;;14.30;3.03;;;12.90;62.80;;;;;;6158264;23;20017;-74
2022/01/28 02:29:12;;;;;;;12.35;2.83;;;12.90;62.90;;;;;;6158097;23;20057;-74
2022/01/28 02:31:38;;;;;;;13.23;2.45;;;12.90;63.00;;;;;;6158098;23;20372;-74
2022/01/28 02:34:06;;;;;;;12.27;2.90;;;12.90;63.10;;;;;;6158152;23;20163;-72
2022/01/28 02:36:31;;;;;;;11.85;2.42;;;12.90;62.90;;;;;;6156711;23;20101;-74
2022/01/28 02:39:01;;;;;;;9.32;2.22;;;12.90;63.30;;;;;;6158058;23;20049;-73
2022/01/28 02:41:32;;;;;;;6.20;2.20;;;12.90;63.70;;;;;;6158165;23;20021;-73
2022/01/28 02:46:31;;;;;;;9.60;2.80;;;12.90;63.70;;;;;;6158247;23;20308;-73
2022/01/28 02:49:05;;;;;;;10.93;2.60;;;12.90;63.50;;;;;;6157640;23;20032;-74
2022/01/28 02:51:31;;;;;;;12.40;2.90;;;12.90;63.50;;;;;;6157613;23;20021;-73
2022/01/28 02:53:59;;;;;;;14.65;3.25;;;12.90;63.70;;;;;;6158822;23;20099;-74
2022/01/28 02:58:57;;;;;;;9.63;2.75;;;12.90;63.50;;;;;;6158355;23;20025;-72
2022/01/28 03:01:23;;;;;;;12.65;2.90;;;12.90;63.50;;;;;;6156877;23;20049;-74
2022/01/28 03:03:50;;;;;;;12.23;2.95;;;12.90;63.40;;;;;;6157589;23;20449;-73
2022/01/28 03:06:18;;;;;;;10.75;3.03;;;12.90;63.30;;;;;;6157865;23;20056;-74
2022/01/28 03:08:52;;;;;;;15.23;3.17;;;12.90;63.30;;;;;;6157882;23;20026;-74
2022/01/28 03:11:42;;;;;;;11.20;2.95;;;12.80;63.30;;;;;;6158316;23;20072;-73
2022/01/28 03:14:17;;;;;;;9.55;2.47;;;12.80;63.30;;;;;;6157879;23;20018;-74
2022/01/28 03:19:51;;;;;;;13.55;3.33;;;12.80;63.50;;;;;;6158016;23;20025;-72
2022/01/28 03:22:16;;;;;;;14.50;2.65;;;12.80;63.90;;;;;;6157976;23;20017;-73
2022/01/28 03:24:46;;;;;;;12.52;2.95;;;12.80;63.60;;;;;;6157801;23;20036;-74
2022/01/28 03:27:20;;;;;;;10.60;3.05;;;12.80;63.10;;;;;;6158076;23;20072;-73
2022/01/28 03:29:45;;;;;;;15.80;3.25;;;12.70;63.00;;;;;;6157829;23;20025;-73
2022/01/28 03:32:11;;;;;;;10.65;2.70;;;12.70;63.20;;;;;;6157743;23;20014;-74
2022/01/28 03:34:37;;;;;;;13.45;2.65;;;12.70;63.20;;;;;;6157905;23;20108;-73
2022/01/28 03:37:05;;;;;;;12.10;3.28;;;12.70;63.30;;;;;;6157663;23;20021;-73
2022/01/28 03:39:30;;;;;;;12.27;3.28;;;12.70;63.20;;;;;;6157725;23;20319;-74
2022/01/28 03:41:56;;;;;;;9.27;2.72;;;12.70;63.40;;;;;;6156324;23;20105;-73
2022/01/28 03:44:22;;;;;;;13.82;3.58;;;12.70;63.20;;;;;;6157819;23;20014;-74
2022/01/28 03:46:47;;;;;;;14.15;3.17;;;12.70;63.20;;;;;;6158738;23;20088;-72
2022/01/28 03:49:13;;;;;;;8.00;2.92;;;12.70;63.20;;;;;;6159835;23;20017;-73
2022/01/28 03:51:39;;;;;;;12.85;3.13;;;12.70;63.10;;;;;;6159643;23;20018;-73
2022/01/28 03:54:05;;;;;;;12.13;2.80;;;12.70;63.20;;;;;;6159786;23;20374;-73
2022/01/28 03:56:30;;;;;;;13.70;3.45;;;12.70;63.20;;;;;;6160506;23;20467;-73
2022/01/28 03:58:56;;;;;;;15.25;3.70;;;12.60;63.10;;;;;;6159944;23;20323;-74
2022/01/28 04:01:28;;;;;;;12.95;2.67;;;12.60;63.30;;;;;;6160102;23;20307;-74
2022/01/28 04:11:51;;;;;;;12.45;3.13;;;12.60;63.10;;;;;;6159331;23;20025;-75
2022/01/28 04:14:37;;;;;;;11.38;2.67;;;12.60;63.20;;;;;;6159616;23;20363;-74
2022/01/28 04:19:33;;;;;;;20.42;3.63;;;12.60;63.10;;;;;;6159520;23;20022;-74
2022/01/28 04:21:59;;;;;;;9.65;2.47;;;12.50;63.10;;;;;;6159384;23;20022;-73
2022/01/28 04:24:25;;;;;;;13.40;3.63;;;12.50;63.30;;;;;;6158579;23;20021;-74
2022/01/28 04:26:51;;;;;;;13.32;3.05;;;12.50;63.20;;;;;;6159686;23;20295;-73
2022/01/28 04:29:17;;;;;;;13.25;3.10;;;12.60;63.00;;;;;;6159759;23;20021;-73
2022/01/28 04:31:46;;;;;;;14.70;3.33;;;12.50;63.20;;;;;;6159842;23;20280;-74
2022/01/28 04:34:16;;;;;;;11.98;3.50;;;12.50;63.30;;;;;;6159356;23;20028;-74
2022/01/28 04:39:47;;;;;;;12.45;2.97;;;12.50;63.10;;;;;;6159244;23;20022;-73
2022/01/28 04:42:28;;;;;;;12.60;3.22;;;12.60;63.40;;;;;;6157141;23;20057;-72
2022/01/28 04:57:54;;;;;;;13.15;2.70;;;12.50;63.00;;;;;;6158593;23;20022;-72
2022/01/28 05:00:36;;;;;;;16.05;3.40;;;12.50;63.00;;;;;;6159887;23;20092;-73
2022/01/28 05:27:07;;;;;;;11.60;3.13;;;12.40;62.60;;;;;;6044797;23;20337;-73
2022/01/28 05:29:33;;;;;;;11.55;3.00;;;12.40;62.30;;;;;;6069561;23;20033;-74
2022/01/28 05:31:58;;;;;;;8.77;2.45;;;12.40;62.50;;;;;;6116221;23;20025;-74
2022/01/28 05:34:27;;;;;;;12.68;3.67;;;12.40;62.50;;;;;;6158820;23;20017;-75
2022/01/28 05:36:53;;;;;;;12.65;2.95;;;12.40;62.50;;;;;;6158849;23;20053;-74
2022/01/28 05:39:20;;;;;;;11.48;2.85;;;12.40;62.50;;;;;;6159133;23;20036;-74
2022/01/28 05:41:45;;;;;;;16.55;3.17;;;12.30;62.30;;;;;;6157852;23;20056;-74
2022/01/28 05:44:11;;;;;;;13.05;2.60;;;12.40;62.50;;;;;;6158817;23;20025;-74
2022/01/28 05:46:37;;;;;;;13.55;3.05;;;12.40;62.40;;;;;;6158812;23;20021;-74
2022/01/28 05:49:03;;;;;;;14.27;2.70;;;12.30;62.30;;;;;;6158672;23;20025;-73
2022/01/28 05:51:28;;;;;;;16.58;3.20;;;12.30;62.10;;;;;;6158307;23;20025;-75
2022/01/28 05:53:57;;;;;;;11.75;2.83;;;12.30;62.40;;;;;;6158932;23;20029;-74
2022/01/28 05:56:24;;;;;;;18.00;3.17;;;12.30;62.80;;;;;;6158700;23;20084;-73
2022/01/28 05:58:50;;;;;;;15.85;3.33;;;12.40;63.40;;;;;;6158187;23;20022;-73
2022/01/28 06:01:16;;;;;;;14.63;3.13;;;12.50;63.60;;;;;;6157078;23;20021;-72
2022/01/28 06:03:44;;;;;;;17.08;3.33;;;12.60;62.10;;;;;;6156735;23;20024;-76
2022/01/28 06:06:18;;;;;;;18.17;3.58;;;12.70;60.90;;;;;;6158776;23;20053;-73
2022/01/28 06:08:44;;;;;;;13.90;3.50;;;12.70;59.70;;;;;;6158638;23;20100;-71
2022/01/28 06:11:10;;;;;;;26.33;4.05;;;12.70;58.80;;;;;;6158591;23;20312;-71
2022/01/28 06:13:35;;;;;;;11.52;3.33;;;12.70;58.10;;;;;;6158689;23;20025;-69
2022/01/28 06:16:01;;;;;;;14.82;3.30;;;12.70;57.70;;;;;;6156786;23;20033;-71
2022/01/28 06:18:27;;;;;;;14.90;2.75;;;12.70;57.80;;;;;;6157379;23;20023;-67
2022/01/28 06:20:52;;;;;;;11.00;2.47;;;12.70;58.00;;;;;;6157092;23;20096;-66
2022/01/28 06:23:18;;;;;;;11.40;2.65;;;12.70;58.40;;;;;;6158382;23;20436;-69
2022/01/28 06:25:44;;;;;;;13.75;2.72;;;12.90;58.60;;;;;;6158380;23;20052;-67
2022/01/28 06:28:10;;;;;;;10.63;2.33;;;13.00;58.70;;;;;;6158215;23;20423;-68
2022/01/28 06:30:35;;;;;;;10.02;2.58;;;13.30;58.90;;;;;;6158464;23;20021;-70
2022/01/28 06:33:01;;;;;;;10.20;2.42;;;13.60;58.90;;;;;;6158083;23;20096;-69
2022/01/28 06:35:27;;;;;;;11.50;2.40;;;13.90;59.10;;;;;;6156988;23;20106;-69
2022/01/28 06:37:53;;;;;;;11.88;2.40;;;14.20;59.30;;;;;;6156640;23;20024;-69
2022/01/28 06:40:18;;;;;;;11.10;2.65;;;14.40;59.10;;;;;;6158228;23;20013;-69
2022/01/28 06:42:45;;;;;;;14.93;2.63;;;14.60;59.00;;;;;;6158036;23;20068;-70
2022/01/28 06:45:11;;;;;;;13.57;2.50;;;14.80;58.80;;;;;;6157945;23;20021;-69
2022/01/28 06:47:37;;;;;;;15.95;2.42;;;15.10;59.30;;;;;;6158245;23;20064;-69
2022/01/28 06:50:08;;;;;;;12.23;2.30;;;15.20;58.50;;;;;;6157963;23;20018;-70
2022/01/28 06:52:35;;;;;;;11.02;2.70;;;15.20;56.60;;;;;;6157634;23;20025;-69
2022/01/28 06:55:01;;;;;;;10.27;2.58;;;15.30;58.70;;;;;;6157667;23;20021;-70
2022/01/28 06:57:30;;;;;;;14.30;2.78;;;15.40;58.70;;;;;;6158935;23;20018;-70
2022/01/28 06:59:57;;;;;;;15.35;2.35;;;15.40;58.90;;;;;;6158047;23;20017;-69
2022/01/28 07:02:23;;;;;;;11.65;2.58;;;15.40;59.10;;;;;;6157493;23;20022;-70
2022/01/28 07:04:49;;;;;;;11.77;2.60;;;15.40;59.40;;;;;;6156857;23;20017;-70
2022/01/28 07:07:15;;;;;;;16.05;3.08;;;15.50;59.40;;;;;;6156939;23;20025;-71
2022/01/28 07:09:41;;;;;;;11.55;2.70;;;14.80;61.90;;;;;;6157404;23;20014;-68
2022/01/28 07:12:07;;;;;;;11.00;2.53;;;14.60;62.90;;;;;;6156521;23;20494;-68
2022/01/28 07:14:33;;;;;;;8.93;2.35;;;15.00;62.30;;;;;;6157279;23;20027;-68
2022/01/28 07:16:59;;;;;;;8.05;2.28;;;15.20;61.70;;;;;;6157269;23;20053;-69
2022/01/28 07:19:25;;;;;;;9.20;2.30;;;15.50;61.30;;;;;;6157342;23;20017;-70
2022/01/28 07:21:51;;;;;;;13.32;3.10;;;15.60;60.70;;;;;;6157382;23;20028;-69
2022/01/28 07:24:17;;;;;;;12.68;2.03;;;15.40;60.50;;;;;;6157900;23;20021;-69
2022/01/28 07:26:43;;;;;;;8.98;2.05;;;15.70;61.10;;;;;;6157735;23;20315;-69
2022/01/28 07:29:10;;;;;;;15.65;2.65;;;15.80;60.70;;;;;;6157744;23;20029;-69
2022/01/28 07:31:38;;;;;;;13.20;2.47;;;16.10;60.20;;;;;;6157845;23;20014;-71
2022/01/28 07:34:05;;;;;;;12.60;2.47;;;16.30;60.10;;;;;;6156763;23;20033;-72
2022/01/28 07:36:32;;;;;;;12.77;2.70;;;16.30;59.70;;;;;;6157501;23;20029;-71
2022/01/28 07:38:57;;;;;;;11.85;2.80;;;16.40;59.50;;;;;;6157905;23;20101;-70
2022/01/28 07:41:23;;;;;;;9.80;1.85;;;16.40;59.50;;;;;;6155675;23;20135;-70
2022/01/28 07:43:49;;;;;;;7.30;1.90;;;16.40;59.30;;;;;;6157435;23;20044;-70
2022/01/28 07:46:15;;;;;;;7.47;2.20;;;16.40;59.30;;;;;;6157668;23;20021;-71
2022/01/28 07:48:41;;;;;;;10.25;1.95;;;16.30;59.30;;;;;;6158058;23;20021;-71
2022/01/28 07:51:07;;;;;;;8.50;2.35;;;16.30;59.30;;;;;;6157216;23;20297;-70
2022/01/28 07:53:32;;;;;;;8.60;2.15;;;16.30;59.30;;;;;;6157816;23;20362;-71
2022/01/28 07:55:58;;;;;;;5.80;1.90;;;16.40;59.30;;;;;;6132111;23;20025;-70
2022/01/28 07:58:24;;;;;;;10.55;2.05;;;16.40;59.20;;;;;;6157664;23;20013;-70
2022/01/28 08:00:50;;;;;;;12.93;2.97;;;16.40;59.10;;;;;;6157603;23;20114;-70
2022/01/28 08:03:15;;;;;;;10.88;1.95;;;16.40;59.10;;;;;;6158555;23;20029;-71
2022/01/28 08:05:41;;;;;;;12.60;2.58;;;16.40;58.90;;;;;;6158011;23;20036;-70
2022/01/28 08:08:09;;;;;;;9.15;1.90;;;16.50;58.80;;;;;;6158007;23;20412;-70
2022/01/28 08:10:35;;;;;;;6.63;1.70;;;16.50;58.70;;;;;;6157972;23;20084;-70
2022/01/28 08:13:03;;;;;;;5.90;2.00;;;16.60;58.50;;;;;;6157671;23;20032;-70
2022/01/28 08:15:29;;;;;;;6.70;1.45;;;16.70;58.30;;;;;;6157613;23;20021;-71
2022/01/28 08:17:55;;;;;;;7.63;1.65;;;16.80;58.10;;;;;;6157191;23;20423;-70
2022/01/28 08:20:21;;;;;;;9.18;2.10;;;16.80;58.00;;;;;;6157620;23;20088;-71
2022/01/28 08:22:52;;;;;;;9.07;1.90;;;16.90;57.90;;;;;;6156809;23;20083;-71
2022/01/28 08:25:21;;;;;;;9.00;2.67;;;16.90;57.70;;;;;;6156896;23;20021;-71
2022/01/28 08:27:49;;;;;;;5.80;1.90;;;17.00;57.60;;;;;;6157170;23;20021;-70
2022/01/28 08:30:18;;;;;;;8.77;2.03;;;17.10;57.50;;;;;;6156711;23;20017;-70
2022/01/28 08:32:44;;;;;;;10.25;2.55;;;17.10;57.30;;;;;;6158719;23;20028;-71
2022/01/28 08:35:11;;;;;;;10.15;2.92;;;17.10;57.20;;;;;;6160006;23;20017;-72
2022/01/28 08:37:37;;;;;;;13.32;2.58;;;17.10;56.20;;;;;;6157636;23;20033;-70
2022/01/28 08:40:04;;;;;;;11.23;2.00;;;17.10;55.90;;;;;;6159183;23;20059;-70
2022/01/28 08:42:30;;;;;;;13.60;2.50;;;17.10;56.00;;;;;;6159362;23;20021;-67
2022/01/28 08:44:55;;;;;;;10.13;2.58;;;16.50;56.90;;;;;;6159363;23;20022;-70
2022/01/28 08:47:21;;;;;;;6.28;2.15;;;16.70;57.60;;;;;;6157566;23;20442;-70
2022/01/28 08:49:47;;;;;;;16.83;3.03;;;16.80;57.70;;;;;;6159200;23;20029;-70
2022/01/28 08:52:13;;;;;;;9.73;2.22;;;16.90;57.80;;;;;;6158754;23;20026;-70
2022/01/28 08:54:42;;;;;;;7.30;2.42;;;16.90;57.90;;;;;;6158729;23;20018;-71
2022/01/28 08:57:08;;;;;;;10.65;1.88;;;16.80;57.90;;;;;;6158974;23;20096;-71
2022/01/28 08:59:34;;;;;;;9.75;1.65;;;16.80;58.00;;;;;;6159724;23;20101;-70
2022/01/28 09:02:00;;;;;;;9.35;2.00;;;16.70;58.20;;;;;;6159724;23;20319;-70
2022/01/28 09:04:26;;;;;;;8.77;2.13;;;16.70;58.40;;;;;;6159428;23;20123;-71
2022/01/28 09:06:52;;;;;;;8.35;2.25;;;16.60;58.50;;;;;;6157261;23;20416;-70
2022/01/28 09:09:19;;;;;;;11.10;2.55;;;16.20;60.60;;;;;;6158612;23;20032;-70
2022/01/28 09:11:53;;;;;;;12.05;2.30;;;15.60;62.80;;;;;;6158892;23;20061;-70
2022/01/28 09:14:20;;;;;;;8.98;2.42;;;15.20;64.00;;;;;;6158692;23;20097;-69
2022/01/28 09:16:47;;;;;;;9.90;2.00;;;15.00;65.30;;;;;;6157173;23;20021;-70
2022/01/28 09:19:14;;;;;;;7.25;2.05;;;14.80;65.90;;;;;;6158538;23;20355;-70
2022/01/28 09:21:39;;;;;;;8.98;2.20;;;15.00;64.90;;;;;;6158820;23;20060;-71
2022/01/28 09:24:05;;;;;;;8.98;2.50;;;15.30;64.30;;;;;;6158966;23;20025;-70
2022/01/28 09:26:31;;;;;;;7.40;1.50;;;15.60;63.20;;;;;;6157688;23;20017;-71
2022/01/28 09:28:57;;;;;;;7.20;2.20;;;15.80;62.20;;;;;;6157644;23;20446;-72
2022/01/28 09:31:23;;;;;;;13.23;2.13;;;16.10;61.50;;;;;;6158757;23;20029;-72
2022/01/28 09:33:49;;;;;;;5.80;2.35;;;16.30;60.90;;;;;;6158439;23;20442;-71
2022/01/28 09:36:15;;;;;;;9.75;2.20;;;16.40;61.00;;;;;;6158865;23;20064;-71
2022/01/28 09:38:40;;;;;;;9.75;2.08;;;16.40;60.10;;;;;;6158890;23;20017;-72
2022/01/28 09:41:08;;;;;;;8.48;2.60;;;16.50;59.70;;;;;;6159318;23;20056;-73
2022/01/28 09:43:34;;;;;;;8.70;1.77;;;16.60;59.20;;;;;;6157428;23;20040;-73
2022/01/28 09:46:03;;;;;;;4.90;1.63;;;16.70;59.20;;;;;;6157814;23;20025;-72
2022/01/28 09:48:30;;;;;;;7.53;1.75;;;16.70;59.30;;;;;;6158074;23;20023;-69
2022/01/28 09:51:00;;;;;;;9.20;1.83;;;16.70;59.10;;;;;;6156900;23;20080;-73
2022/01/28 09:53:26;;;;;;;8.02;2.15;;;16.80;59.10;;;;;;6158411;23;20025;-71
2022/01/28 09:55:52;;;;;;;9.15;2.50;;;16.90;59.00;;;;;;6158846;23;20319;-71
2022/01/28 09:58:18;;;;;;;7.20;1.80;;;16.90;58.90;;;;;;6158741;23;20304;-70
2022/01/28 10:00:44;;;;;;;9.98;2.42;;;17.00;59.00;;;;;;6159209;23;20022;-71
2022/01/28 10:03:12;;;;;;;8.85;2.58;;;17.10;59.00;;;;;;6156788;23;20033;-76
2022/01/28 10:05:40;;;;;;;9.48;2.53;;;17.20;58.90;;;;;;6132211;23;20014;-72
2022/01/28 10:08:08;;;;;;;8.95;1.98;;;17.30;58.90;;;;;;6158031;23;20092;-76
2022/01/28 10:11:11;;;;;;;10.60;1.95;;;17.30;58.80;;;;;;6156545;23;20018;-69
2022/01/28 10:13:45;;;;;;;7.05;1.95;;;17.30;58.80;;;;;;6157082;23;20027;-71
2022/01/28 10:16:23;;;;;;;8.65;1.98;;;17.30;59.10;;;;;;6156716;23;20044;-72
2022/01/28 10:18:53;;;;;;;11.02;2.47;;;17.10;58.30;;;;;;6156216;23;20049;-68
2022/01/28 10:21:23;;;;;;;6.07;2.08;;;17.20;60.10;;;;;;6158238;23;20076;-74
2022/01/28 10:24:25;;;;;;;10.50;2.42;;;17.30;60.00;;;;;;6157312;23;20427;-72
2022/01/28 10:26:56;;;;;;;7.93;2.03;;;17.30;59.80;;;;;;6155843;23;20029;-76
2022/01/28 10:29:25;;;;;;;10.02;2.67;;;17.30;59.80;;;;;;6157578;23;20021;-73
2022/01/28 10:31:52;;;;;;;14.18;2.40;;;17.30;58.00;;;;;;6158104;23;20022;-76
2022/01/28 10:34:41;;;;;;;12.25;2.53;;;17.20;56.10;;;;;;6158193;23;20068;-75
2022/01/28 10:37:11;;;;;;;11.20;2.30;;;17.20;55.80;;;;;;6157461;23;20021;-74
2022/01/28 10:39:49;;;;;;;10.93;2.17;;;17.20;56.60;;;;;;6156542;23;20127;-73
2022/01/28 10:42:23;;;;;;;8.45;1.80;;;17.10;57.00;;;;;;6157721;23;20021;-72
2022/01/28 10:44:56;;;;;;;9.35;1.75;;;17.10;57.80;;;;;;6157697;23;20089;-73
2022/01/28 10:47:35;;;;;;;8.55;2.45;;;17.10;58.40;;;;;;6158516;23;20021;-73
2022/01/28 10:50:16;;;;;;;7.32;2.25;;;17.10;59.00;;;;;;6157808;23;20021;-74
2022/01/28 10:52:42;;;;;;;7.13;1.75;;;17.10;59.80;;;;;;6157226;23;20064;-74
2022/01/28 10:55:15;;;;;;;10.93;1.88;;;17.20;59.40;;;;;;6157545;23;20076;-73
2022/01/28 10:57:54;;;;;;;8.00;2.00;;;17.20;59.70;;;;;;6157989;23;20021;-72
2022/01/28 11:00:21;;;;;;;6.60;1.77;;;17.10;59.80;;;;;;6157951;23;20017;-77
2022/01/28 11:02:48;;;;;;;8.63;1.83;;;17.10;60.00;;;;;;6157576;23;20064;-72
2022/01/28 11:05:14;;;;;;;7.00;1.60;;;17.10;60.10;;;;;;6154499;23;20301;-72
2022/01/28 11:07:41;;;;;;;8.65;1.98;;;17.10;59.90;;;;;;6157095;23;20017;-73
2022/01/28 11:10:07;;;;;;;8.77;2.20;;;17.10;60.00;;;;;;6156011;23;20335;-74
2022/01/28 11:12:33;;;;;;;5.97;1.67;;;17.20;59.60;;;;;;6157793;23;20021;-72
2022/01/28 11:15:04;;;;;;;7.25;1.73;;;17.30;59.70;;;;;;6156762;23;20032;-72
2022/01/28 11:17:31;;;;;;;8.18;2.08;;;17.40;59.90;;;;;;6157057;23;20428;-73
2022/01/28 11:19:58;;;;;;;9.10;1.77;;;17.40;59.70;;;;;;6157254;23;20065;-75
2022/01/28 11:23:02;;;;;;;12.40;2.40;;;17.50;59.30;;;;;;6157588;23;20122;-74
2022/01/28 11:25:59;;;;;;;9.85;2.53;;;17.50;59.80;;;;;;6156659;23;20017;-72
2022/01/28 11:28:44;;;;;;;12.77;2.35;;;17.50;53.60;;;;;;6151129;23;20451;-71
2022/01/28 11:31:11;;;;;;;9.98;2.58;;;17.30;60.70;;;;;;6156996;23;20028;-73
2022/01/28 11:33:48;;;;;;;13.23;2.13;;;16.70;58.00;;;;;;6157455;23;20024;-72
2022/01/28 11:36:34;;;;;;;10.98;1.95;;;16.20;62.10;;;;;;6157247;23;20028;-70
2022/01/28 11:39:28;;;;;;;15.80;2.70;;;16.70;61.70;;;;;;6157854;23;20022;-72
2022/01/28 11:42:06;;;;;;;;;;;17.10;61.10;;;;;;6158128;23;20289;-73
2022/01/28 11:44:51;;;;;;;9.98;1.80;;;17.30;59.60;;;;;;6157514;23;19920;-76
2022/01/28 11:47:32;;;;;;;12.75;2.38;;;17.40;58.90;;;;;;6157616;23;20021;-71
2022/01/28 11:49:58;;;;;;;9.23;1.85;;;17.50;57.60;;;;;;6156245;23;20022;-72
2022/01/28 11:52:25;;;;;;;13.25;2.22;;;17.50;56.80;;;;;;6155485;23;20300;-74
2022/01/28 11:54:52;;;;;;;12.75;2.42;;;17.50;56.40;;;;;;6156635;23;20360;-72
2022/01/28 11:57:19;;;;;;;12.82;2.10;;;17.50;56.20;;;;;;6155985;23;20021;-73
2022/01/28 11:59:46;;;;;;;11.57;2.30;;;17.50;55.30;;;;;;6157871;23;20092;-73
2022/01/28 12:02:14;;;;;;;7.82;2.10;;;17.40;54.40;;;;;;6157070;23;20028;-76
2022/01/28 12:04:42;;;;;;;11.02;2.47;;;17.30;54.30;;;;;;6157669;23;20026;-76
2022/01/28 12:07:18;;;;;;;15.38;2.70;;;17.20;54.50;;;;;;6158527;23;20063;-73
2022/01/28 12:09:48;;;;;;;13.23;2.50;;;17.20;54.80;;;;;;6160386;23;20025;-73
2022/01/28 12:12:45;;;;;;;12.88;2.40;;;17.20;54.40;;;;;;6159813;23;20022;-75
2022/01/28 12:15:16;;;;;;;10.43;2.53;;;17.10;54.40;;;;;;6145479;23;20031;-76
2022/01/28 12:17:45;;;;;;;8.75;2.03;;;17.10;54.70;;;;;;6158375;23;20021;-74
2022/01/28 12:20:14;;;;;;;12.25;2.40;;;17.00;54.70;;;;;;6159244;23;20431;-75
2022/01/28 12:22:59;;;;;;;10.60;2.45;;;17.00;54.80;;;;;;6158213;23;20018;-76
2022/01/28 12:25:36;;;;;;;9.98;2.53;;;16.90;54.30;;;;;;6159430;23;20025;-75
2022/01/28 12:28:25;;;;;;;8.13;1.88;;;16.80;54.70;;;;;;6158905;23;20021;-76
2022/01/28 12:31:01;;;;;;;8.23;2.00;;;16.70;55.00;;;;;;6159382;23;20096;-75
2022/01/28 12:33:33;;;;;;;7.28;2.03;;;16.70;55.90;;;;;;6159312;23;20017;-74
2022/01/28 12:36:06;;;;;;;9.90;1.90;;;16.60;55.50;;;;;;6158611;23;20084;-74
2022/01/28 12:38:34;;;;;;;8.20;2.23;;;16.60;55.60;;;;;;6158897;23;20096;-72
2022/01/28 12:41:07;;;;;;;8.35;2.47;;;16.50;56.00;;;;;;6159163;23;20021;-77
2022/01/28 12:43:33;;;;;;;;;;;16.50;56.10;;;;;;6159473;23;20017;-75
2022/01/28 12:46:03;;;;;;;7.55;1.85;;;16.40;56.00;;;;;;6159818;23;19923;-74
2022/01/28 12:48:29;;;;;;;12.48;2.10;;;16.30;56.50;;;;;;6159677;23;20273;-74
2022/01/28 12:50:56;;;;;;;11.00;2.20;;;16.30;56.60;;;;;;6159667;23;20029;-74
2022/01/28 12:53:31;;;;;;;9.25;2.25;;;16.30;56.70;;;;;;6158888;23;20105;-75
2022/01/28 12:55:59;;;;;;;9.38;2.30;;;16.30;56.80;;;;;;6158879;23;20017;-73
2022/01/28 12:58:51;;;;;;;7.28;1.67;;;16.20;56.90;;;;;;6158768;23;20538;-75
2022/01/28 13:01:20;;;;;;;7.40;2.10;;;16.30;57.00;;;;;;6153756;23;20029;-74
2022/01/28 13:08:24;;;;;;;6.43;1.58;;;16.20;57.20;;;;;;6159923;23;20029;-74
2022/01/28 13:09:12;;;;;;;8.55;1.73;;;16.20;57.30;;;;;;6146767;23;20036;-75
2022/01/28 13:11:55;;;;;;;9.30;2.17;;;16.30;57.50;;;;;;6158318;23;20428;-74
2022/01/28 13:14:26;;;;;;;5.68;1.52;;;16.20;57.50;;;;;;6159804;23;20060;-74
2022/01/28 13:16:53;;;;;;;11.13;2.22;;;16.20;57.70;;;;;;6157370;23;20093;-73
2022/01/28 13:19:19;;;;;;;7.88;1.58;;;16.20;57.80;;;;;;6159343;23;20017;-74
2022/01/28 13:21:47;;;;;;;8.55;1.63;;;16.20;57.80;;;;;;6158909;23;20092;-77
2022/01/28 13:24:21;;;;;;;4.85;1.60;;;16.20;57.80;;;;;;6157980;23;20357;-74
2022/01/28 13:27:04;;;;;;;7.43;1.45;;;16.20;57.80;;;;;;6159852;23;20025;-76
2022/01/28 13:29:46;;;;;;;6.70;1.40;;;16.20;57.80;;;;;;6159244;23;20387;-74
2022/01/28 13:32:16;;;;;;;5.63;1.70;;;16.20;58.00;;;;;;6158369;23;20022;-73
2022/01/28 13:34:59;;;;;;;8.43;1.63;;;16.10;58.00;;;;;;6158391;23;20430;-74
2022/01/28 13:37:41;;;;;;;4.68;1.20;;;16.10;57.90;;;;;;6159327;23;20301;-73
2022/01/28 13:40:31;;;;;;;5.30;1.38;;;16.10;58.20;;;;;;6157908;23;20044;-73
2022/01/28 13:43:05;;;;;;;4.55;1.52;;;16.10;58.00;;;;;;6158489;23;20021;-72
2022/01/28 13:45:38;;;;;;;3.50;1.10;;;16.10;58.60;;;;;;6158314;23;20486;-75
2022/01/28 13:48:07;;;;;;;5.95;1.27;;;16.10;58.10;;;;;;6158391;23;20494;-73
2022/01/28 13:50:36;;;;;;;7.00;1.30;;;16.10;58.10;;;;;;6158680;23;20063;-74
2022/01/28 13:55:46;;;;;;;;;;;16.00;58.00;;;;;;6157862;23;20339;-76
2022/01/28 13:58:12;;;;;;;4.07;0.95;;;16.00;58.00;;;;;;6159198;23;19962;-75
2022/01/28 14:00:41;;;;;;;9.07;1.25;;;16.00;58.20;;;;;;6158370;23;20018;-75
2022/01/28 14:03:16;;;;;;;7.40;1.55;;;16.10;58.30;;;;;;6158424;23;20021;-83
2022/01/28 14:05:55;;;;;;;9.52;1.42;;;16.00;58.20;;;;;;6158406;23;20339;-76
2022/01/28 14:08:44;;;;;;;13.40;1.73;;;16.00;58.40;;;;;;6157917;23;20036;-74
2022/01/28 14:11:22;;;;;;;16.20;2.00;;;16.00;58.40;;;;;;6157866;23;20045;-74
2022/01/28 14:14:04;;;;;;;11.48;2.45;;;15.90;58.70;;;;;;6158337;23;20017;-74
2022/01/28 14:16:29;;;;;;;13.60;2.60;;;15.90;58.70;;;;;;6157927;23;20446;-76
2022/01/28 14:18:55;;;;;;;22.05;2.85;;;15.90;59.00;;;;;;6158814;23;20025;-75
2022/01/28 14:21:21;;;;;;;15.02;2.05;;;15.80;59.60;;;;;;6158302;23;20028;-80
2022/01/28 14:23:46;;;;;;;12.93;2.28;;;15.80;59.70;;;;;;6157602;23;20415;-76
2022/01/28 14:26:14;;;;;;;13.52;2.20;;;15.80;59.70;;;;;;6158172;23;20016;-73
2022/01/28 14:29:08;;;;;;;13.77;2.45;;;15.80;59.80;;;;;;6157895;23;20439;-72
2022/01/28 14:31:25;;;;;;;11.65;1.92;;;15.80;59.70;;;;;;6157655;23;20319;-76
2022/01/28 14:33:52;;;;;;;12.27;2.00;;;15.80;59.70;;;;;;6157730;23;20021;-72